sensor_id;sensor_type;location;lat;lon;timestamp;pressure;altitude;pressure_sealevel;temperature;humidity
13015;BME280;6573;57.696;11.950;2023-03-22T00:01:49;100247.47;;;11.30;100.00
13015;BME280;6573;57.696;11.950;2023-03-22T00:04:19;100221.13;;;11.30;100.00
13015;BME280;6573;57.696;11.950;2023-03-22T00:06:49;100223.00;;;11.22;100.00
13015;BME280;6573;57.696;11.950;2023-03-22T00:09:18;100205.34;;;11.30;100.00
13015;BME280;6573;57.696;11.950;2023-03-22T00:11:47;100223.66;;;11.36;100.00
13015;BME280;6573;57.696;11.950;2023-03-22T00:14:17;100205.59;;;11.12;100.00
13015;BME280;6573;57.696;11.950;2023-03-22T00:16:45;100202.06;;;11.16;100.00
13015;BME280;6573;57.696;11.950;2023-03-22T00:19:15;100218.31;;;11.42;100.00
13015;BME280;6573;57.696;11.950;2023-03-22T00:21:44;100185.94;;;11.34;100.00
13015;BME280;6573;57.696;11.950;2023-03-22T00:24:14;100210.47;;;11.36;100.00
13015;BME280;6573;57.696;11.950;2023-03-22T00:26:43;100206.94;;;11.39;100.00
13015;BME280;6573;57.696;11.950;2023-03-22T00:29:12;100206.97;;;11.37;100.00
13015;BME280;6573;57.696;11.950;2023-03-22T00:31:44;100200.03;;;11.33;100.00
13015;BME280;6573;57.696;11.950;2023-03-22T00:34:12;100202.88;;;11.18;100.00
13015;BME280;6573;57.696;11.950;2023-03-22T00:36:41;100194.88;;;11.24;100.00
13015;BME280;6573;57.696;11.950;2023-03-22T00:39:09;100192.22;;;11.27;100.00
13015;BME280;6573;57.696;11.950;2023-03-22T00:41:40;100186.06;;;11.28;100.00
13015;BME280;6573;57.696;11.950;2023-03-22T00:44:09;100186.97;;;11.24;100.00
13015;BME280;6573;57.696;11.950;2023-03-22T00:46:37;100167.81;;;11.16;100.00
13015;BME280;6573;57.696;11.950;2023-03-22T00:49:06;100191.41;;;11.22;100.00
13015;BME280;6573;57.696;11.950;2023-03-22T00:51:34;100169.66;;;11.10;100.00
13015;BME280;6573;57.696;11.950;2023-03-22T00:54:03;100147.81;;;11.06;100.00
13015;BME280;6573;57.696;11.950;2023-03-22T00:56:31;100160.91;;;11.09;100.00
13015;BME280;6573;57.696;11.950;2023-03-22T00:59:05;100163.41;;;11.18;100.00
13015;BME280;6573;57.696;11.950;2023-03-22T01:01:36;100156.56;;;11.05;100.00
13015;BME280;6573;57.696;11.950;2023-03-22T01:04:05;100164.44;;;11.06;100.00
13015;BME280;6573;57.696;11.950;2023-03-22T01:06:34;100153.19;;;10.97;100.00
13015;BME280;6573;57.696;11.950;2023-03-22T01:09:02;100152.88;;;11.18;100.00
13015;BME280;6573;57.696;11.950;2023-03-22T01:11:31;100155.59;;;11.12;100.00
13015;BME280;6573;57.696;11.950;2023-03-22T01:13:59;100161.56;;;11.23;100.00
13015;BME280;6573;57.696;11.950;2023-03-22T01:16:29;100152.88;;;11.18;100.00
13015;BME280;6573;57.696;11.950;2023-03-22T01:18:58;100161.75;;;11.11;100.00
13015;BME280;6573;57.696;11.950;2023-03-22T01:21:27;100133.91;;;10.96;100.00
13015;BME280;6573;57.696;11.950;2023-03-22T01:23:55;100152.16;;;11.09;100.00
13015;BME280;6573;57.696;11.950;2023-03-22T01:26:23;100152.38;;;10.93;100.00
13015;BME280;6573;57.696;11.950;2023-03-22T01:28:57;100129.75;;;10.80;100.00
13015;BME280;6573;57.696;11.950;2023-03-22T01:31:26;100143.75;;;10.84;100.00
13015;BME280;6573;57.696;11.950;2023-03-22T01:33:58;100097.53;;;10.65;100.00
13015;BME280;6573;57.696;11.950;2023-03-22T01:36:26;100135.69;;;10.96;100.00
13015;BME280;6573;57.696;11.950;2023-03-22T01:38:54;100128.94;;;10.77;100.00
13015;BME280;6573;57.696;11.950;2023-03-22T01:41:23;100091.28;;;10.72;100.00
13015;BME280;6573;57.696;11.950;2023-03-22T01:44:12;100100.91;;;10.76;100.00
13015;BME280;6573;57.696;11.950;2023-03-22T01:46:44;100107.84;;;10.80;100.00
13015;BME280;6573;57.696;11.950;2023-03-22T01:49:18;100116.53;;;10.85;100.00
13015;BME280;6573;57.696;11.950;2023-03-22T01:51:49;100109.63;;;10.78;100.00
13015;BME280;6573;57.696;11.950;2023-03-22T01:54:23;100072.22;;;10.58;100.00
13015;BME280;6573;57.696;11.950;2023-03-22T01:56:54;100104.34;;;10.81;100.00
13015;BME280;6573;57.696;11.950;2023-03-22T01:59:23;100099.03;;;10.84;100.00
13015;BME280;6573;57.696;11.950;2023-03-22T02:01:52;100090.34;;;10.79;100.00
13015;BME280;6573;57.696;11.950;2023-03-22T02:04:24;100077.19;;;10.77;100.00
13015;BME280;6573;57.696;11.950;2023-03-22T02:07:01;100077.22;;;10.74;100.00
13015;BME280;6573;57.696;11.950;2023-03-22T02:09:35;100085.06;;;10.79;100.00
13015;BME280;6573;57.696;11.950;2023-03-22T02:12:18;100067.59;;;10.75;100.00
13015;BME280;6573;57.696;11.950;2023-03-22T02:14:59;100084.94;;;10.88;100.00
13015;BME280;6573;57.696;11.950;2023-03-22T02:17:37;100082.38;;;10.83;100.00
13015;BME280;6573;57.696;11.950;2023-03-22T02:20:53;100090.47;;;10.70;100.00
13015;BME280;6573;57.696;11.950;2023-03-22T02:23:54;100086.09;;;10.67;100.00
13015;BME280;6573;57.696;11.950;2023-03-22T02:27:04;100079.03;;;10.72;100.00
13015;BME280;6573;57.696;11.950;2023-03-22T02:29:40;100083.28;;;10.79;100.00
13015;BME280;6573;57.696;11.950;2023-03-22T02:32:39;100090.25;;;10.82;100.00
13015;BME280;6573;57.696;11.950;2023-03-22T02:35:26;100076.38;;;10.74;100.00
13015;BME280;6573;57.696;11.950;2023-03-22T02:38:16;100077.06;;;10.86;100.00
13015;BME280;6573;57.696;11.950;2023-03-22T02:40:53;100089.13;;;10.99;100.00
13015;BME280;6573;57.696;11.950;2023-03-22T02:43:32;100078.03;;;10.81;100.00
13015;BME280;6573;57.696;11.950;2023-03-22T02:46:08;100084.75;;;10.98;100.00
13015;BME280;6573;57.696;11.950;2023-03-22T02:48:41;100090.09;;;10.94;100.00
13015;BME280;6573;57.696;11.950;2023-03-22T02:51:16;100079.56;;;10.94;100.00
13015;BME280;6573;57.696;11.950;2023-03-22T02:53:49;100072.38;;;11.05;100.00
13015;BME280;6573;57.696;11.950;2023-03-22T02:56:24;100082.00;;;11.06;100.00
13015;BME280;6573;57.696;11.950;2023-03-22T02:58:56;100080.09;;;11.16;100.00
13015;BME280;6573;57.696;11.950;2023-03-22T03:01:29;100065.25;;;11.10;100.00
13015;BME280;6573;57.696;11.950;2023-03-22T03:04:01;100061.00;;;11.01;100.00
13015;BME280;6573;57.696;11.950;2023-03-22T03:06:34;100074.34;;;10.91;100.00
13015;BME280;6573;57.696;11.950;2023-03-22T03:09:06;100064.66;;;10.93;100.00
13015;BME280;6573;57.696;11.950;2023-03-22T03:11:36;100061.00;;;11.01;100.00
13015;BME280;6573;57.696;11.950;2023-03-22T03:14:04;100068.63;;;11.18;100.00
13015;BME280;6573;57.696;11.950;2023-03-22T03:16:33;100065.97;;;11.21;100.00
13015;BME280;6573;57.696;11.950;2023-03-22T03:19:06;100061.63;;;11.17;100.00
13015;BME280;6573;57.696;11.950;2023-03-22T03:21:42;100053.09;;;11.03;100.00
13015;BME280;6573;57.696;11.950;2023-03-22T03:24:20;100052.25;;;11.01;100.00
13015;BME280;6573;57.696;11.950;2023-03-22T03:27:01;100053.19;;;10.97;100.00
13015;BME280;6573;57.696;11.950;2023-03-22T03:29:37;100043.03;;;10.76;100.00
13015;BME280;6573;57.696;11.950;2023-03-22T03:32:12;100037.56;;;10.88;100.00
13015;BME280;6573;57.696;11.950;2023-03-22T03:34:46;100041.88;;;10.92;100.00
13015;BME280;6573;57.696;11.950;2023-03-22T03:37:19;100032.91;;;11.03;100.00
13015;BME280;6573;57.696;11.950;2023-03-22T03:39:54;100034.38;;;11.21;100.00
13015;BME280;6573;57.696;11.950;2023-03-22T03:42:27;100033.72;;;11.07;100.00
13015;BME280;6573;57.696;11.950;2023-03-22T03:44:57;100035.28;;;11.17;100.00
13015;BME280;6573;57.696;11.950;2023-03-22T03:47:27;100024.81;;;11.14;100.00
13015;BME280;6573;57.696;11.950;2023-03-22T03:49:56;99976.16;;;10.89;100.00
13015;BME280;6573;57.696;11.950;2023-03-22T03:52:25;100017.84;;;11.13;100.00
13015;BME280;6573;57.696;11.950;2023-03-22T03:54:55;100009.75;;;11.22;100.00
13015;BME280;6573;57.696;11.950;2023-03-22T03:57:25;100005.19;;;11.33;100.00
13015;BME280;6573;57.696;11.950;2023-03-22T03:59:54;100017.28;;;11.43;100.00
13015;BME280;6573;57.696;11.950;2023-03-22T04:02:22;99996.50;;;11.28;100.00
13015;BME280;6573;57.696;11.950;2023-03-22T04:04:51;99993.03;;;11.26;100.00
13015;BME280;6573;57.696;11.950;2023-03-22T04:07:21;100006.25;;;11.23;100.00
13015;BME280;6573;57.696;11.950;2023-03-22T04:09:49;99997.41;;;11.26;100.00
13015;BME280;6573;57.696;11.950;2023-03-22T04:12:18;99996.53;;;11.25;100.00
13015;BME280;6573;57.696;11.950;2023-03-22T04:14:47;99998.41;;;11.20;100.00
13015;BME280;6573;57.696;11.950;2023-03-22T04:17:16;100005.28;;;11.27;100.00
13015;BME280;6573;57.696;11.950;2023-03-22T04:19:44;99987.03;;;11.17;100.00
13015;BME280;6573;57.696;11.950;2023-03-22T04:22:12;99993.13;;;11.20;100.00
13015;BME280;6573;57.696;11.950;2023-03-22T04:24:44;99997.75;;;11.07;100.00
13015;BME280;6573;57.696;11.950;2023-03-22T04:27:20;99984.25;;;11.24;100.00
13015;BME280;6573;57.696;11.950;2023-03-22T04:29:49;99980.50;;;11.37;100.00
13015;BME280;6573;57.696;11.950;2023-03-22T04:32:18;99985.13;;;11.25;100.00
13015;BME280;6573;57.696;11.950;2023-03-22T04:34:48;99979.13;;;11.18;100.00
13015;BME280;6573;57.696;11.950;2023-03-22T04:37:17;99963.34;;;11.18;100.00
13015;BME280;6573;57.696;11.950;2023-03-22T04:39:48;99970.22;;;11.25;100.00
13015;BME280;6573;57.696;11.950;2023-03-22T04:42:17;99966.63;;;11.29;100.00
13015;BME280;6573;57.696;11.950;2023-03-22T04:44:45;99972.13;;;11.17;100.00
13015;BME280;6573;57.696;11.950;2023-03-22T04:47:15;99971.34;;;11.12;100.00
13015;BME280;6573;57.696;11.950;2023-03-22T04:49:44;99938.41;;;10.90;100.00
13015;BME280;6573;57.696;11.950;2023-03-22T04:52:13;99977.44;;;11.14;100.00
13015;BME280;6573;57.696;11.950;2023-03-22T04:54:44;99972.31;;;11.08;100.00
13015;BME280;6573;57.696;11.950;2023-03-22T04:57:12;99975.59;;;11.19;100.00
13015;BME280;6573;57.696;11.950;2023-03-22T04:59:40;99979.19;;;11.15;100.00
13015;BME280;6573;57.696;11.950;2023-03-22T05:02:09;99938.56;;;10.84;100.00
13015;BME280;6573;57.696;11.950;2023-03-22T05:04:38;99978.59;;;10.99;100.00
13015;BME280;6573;57.696;11.950;2023-03-22T05:07:06;99983.75;;;11.04;100.00
13015;BME280;6573;57.696;11.950;2023-03-22T05:09:35;99972.16;;;11.14;100.00
13015;BME280;6573;57.696;11.950;2023-03-22T05:12:04;99967.00;;;11.11;100.00
13015;BME280;6573;57.696;11.950;2023-03-22T05:14:32;99971.38;;;11.09;100.00
13015;BME280;6573;57.696;11.950;2023-03-22T05:17:01;99980.03;;;11.17;100.00
13015;BME280;6573;57.696;11.950;2023-03-22T05:19:29;99963.44;;;11.14;100.00
13015;BME280;6573;57.696;11.950;2023-03-22T05:22:00;99967.78;;;11.16;100.00
13015;BME280;6573;57.696;11.950;2023-03-22T05:24:29;99958.22;;;11.09;100.00
13015;BME280;6573;57.696;11.950;2023-03-22T05:26:57;99959.97;;;11.10;100.00
13015;BME280;6573;57.696;11.950;2023-03-22T05:29:27;99946.31;;;10.90;100.00
13015;BME280;6573;57.696;11.950;2023-03-22T05:31:58;99935.56;;;11.02;100.00
13015;BME280;6573;57.696;11.950;2023-03-22T05:34:26;99956.38;;;11.14;100.00
13015;BME280;6573;57.696;11.950;2023-03-22T05:37:03;99938.63;;;11.25;100.00
13015;BME280;6573;57.696;11.950;2023-03-22T05:39:31;99930.84;;;11.19;100.00
13015;BME280;6573;57.696;11.950;2023-03-22T05:42:00;99936.63;;;11.36;100.00
13015;BME280;6573;57.696;11.950;2023-03-22T05:44:28;99915.78;;;11.27;100.00
13015;BME280;6573;57.696;11.950;2023-03-22T05:46:57;99938.38;;;11.37;100.00
13015;BME280;6573;57.696;11.950;2023-03-22T05:49:26;99932.16;;;11.41;100.00
13015;BME280;6573;57.696;11.950;2023-03-22T05:51:54;99933.16;;;11.34;100.00
13015;BME280;6573;57.696;11.950;2023-03-22T05:54:24;99929.72;;;11.32;100.00
13015;BME280;6573;57.696;11.950;2023-03-22T05:56:54;99925.22;;;11.37;100.00
13015;BME280;6573;57.696;11.950;2023-03-22T05:59:23;99880.59;;;10.88;100.00
13015;BME280;6573;57.696;11.950;2023-03-22T06:01:53;99924.63;;;11.23;100.00
13015;BME280;6573;57.696;11.950;2023-03-22T06:04:22;99907.16;;;11.19;100.00
13015;BME280;6573;57.696;11.950;2023-03-22T06:06:51;99896.72;;;11.16;100.00
13015;BME280;6573;57.696;11.950;2023-03-22T06:09:20;99900.88;;;11.26;100.00
13015;BME280;6573;57.696;11.950;2023-03-22T06:11:50;99892.78;;;11.35;100.00
13015;BME280;6573;57.696;11.950;2023-03-22T06:14:19;99888.47;;;11.33;100.00
13015;BME280;6573;57.696;11.950;2023-03-22T06:16:50;99886.75;;;11.30;100.00
13015;BME280;6573;57.696;11.950;2023-03-22T06:19:21;99887.47;;;10.95;100.00
13015;BME280;6573;57.696;11.950;2023-03-22T06:21:52;99875.94;;;11.01;100.00
13015;BME280;6573;57.696;11.950;2023-03-22T06:24:21;99885.25;;;11.19;100.00
13015;BME280;6573;57.696;11.950;2023-03-22T06:26:51;99852.84;;;11.15;100.00
13015;BME280;6573;57.696;11.950;2023-03-22T06:29:20;99842.38;;;11.12;100.00
13015;BME280;6573;57.696;11.950;2023-03-22T06:31:48;99837.09;;;11.12;100.00
13015;BME280;6573;57.696;11.950;2023-03-22T06:34:19;99878.81;;;11.33;100.00
13015;BME280;6573;57.696;11.950;2023-03-22T06:36:47;99869.88;;;11.39;100.00
13015;BME280;6573;57.696;11.950;2023-03-22T06:39:17;99867.41;;;11.31;100.00
13015;BME280;6573;57.696;11.950;2023-03-22T06:41:45;99846.38;;;11.30;100.00
13015;BME280;6573;57.696;11.950;2023-03-22T06:44:16;99821.25;;;11.15;100.00
13015;BME280;6573;57.696;11.950;2023-03-22T06:46:46;99874.81;;;11.55;100.00
13015;BME280;6573;57.696;11.950;2023-03-22T06:49:15;99859.78;;;11.60;100.00
13015;BME280;6573;57.696;11.950;2023-03-22T06:51:45;99803.72;;;11.14;100.00
13015;BME280;6573;57.696;11.950;2023-03-22T06:54:13;99869.53;;;11.55;100.00
13015;BME280;6573;57.696;11.950;2023-03-22T06:56:43;99872.75;;;11.69;100.00
13015;BME280;6573;57.696;11.950;2023-03-22T06:59:12;99856.97;;;11.66;100.00
13015;BME280;6573;57.696;11.950;2023-03-22T07:01:46;99871.88;;;11.71;100.00
13015;BME280;6573;57.696;11.950;2023-03-22T07:04:15;99863.03;;;11.73;100.00
13015;BME280;6573;57.696;11.950;2023-03-22T07:06:46;99865.69;;;11.72;100.00
13015;BME280;6573;57.696;11.950;2023-03-22T07:09:14;99804.81;;;11.45;100.00
13015;BME280;6573;57.696;11.950;2023-03-22T07:11:43;99860.28;;;11.78;100.00
13015;BME280;6573;57.696;11.950;2023-03-22T07:14:11;99858.47;;;11.80;100.00
13015;BME280;6573;57.696;11.950;2023-03-22T07:16:40;99854.94;;;11.81;100.00
13015;BME280;6573;57.696;11.950;2023-03-22T07:19:10;99853.22;;;11.80;100.00
13015;BME280;6573;57.696;11.950;2023-03-22T07:21:40;99852.56;;;11.70;100.00
13015;BME280;6573;57.696;11.950;2023-03-22T07:24:08;99838.59;;;11.65;100.00
13015;BME280;6573;57.696;11.950;2023-03-22T07:26:38;99848.16;;;11.71;100.00
13015;BME280;6573;57.696;11.950;2023-03-22T07:29:07;99847.28;;;11.70;100.00
13015;BME280;6573;57.696;11.950;2023-03-22T07:31:41;99835.91;;;11.66;100.00
13015;BME280;6573;57.696;11.950;2023-03-22T07:34:11;99816.38;;;11.77;100.00
13015;BME280;6573;57.696;11.950;2023-03-22T07:36:39;99825.59;;;11.57;100.00
13015;BME280;6573;57.696;11.950;2023-03-22T07:39:07;99831.47;;;11.70;100.00
13015;BME280;6573;57.696;11.950;2023-03-22T07:41:36;99815.00;;;11.60;100.00
13015;BME280;6573;57.696;11.950;2023-03-22T07:44:04;99821.81;;;11.71;100.00
13015;BME280;6573;57.696;11.950;2023-03-22T07:46:45;99821.81;;;11.71;100.00
13015;BME280;6573;57.696;11.950;2023-03-22T07:49:15;99797.31;;;11.65;100.00
13015;BME280;6573;57.696;11.950;2023-03-22T07:51:43;99837.28;;;11.86;100.00
13015;BME280;6573;57.696;11.950;2023-03-22T07:54:12;99816.31;;;11.80;100.00
13015;BME280;6573;57.696;11.950;2023-03-22T07:56:59;99828.66;;;11.78;100.00
13015;BME280;6573;57.696;11.950;2023-03-22T07:59:28;99820.69;;;11.81;100.00
13015;BME280;6573;57.696;11.950;2023-03-22T08:01:57;99818.13;;;11.78;100.00
13015;BME280;6573;57.696;11.950;2023-03-22T08:04:27;99820.00;;;11.73;100.00
13015;BME280;6573;57.696;11.950;2023-03-22T08:06:56;99817.84;;;11.90;100.00
13015;BME280;6573;57.696;11.950;2023-03-22T08:09:26;99800.66;;;11.74;100.00
13015;BME280;6573;57.696;11.950;2023-03-22T08:11:54;99816.03;;;11.92;100.00
13015;BME280;6573;57.696;11.950;2023-03-22T08:14:22;99798.63;;;11.85;100.00
13015;BME280;6573;57.696;11.950;2023-03-22T08:17:02;99815.19;;;11.90;100.00
13015;BME280;6573;57.696;11.950;2023-03-22T08:19:33;99784.47;;;11.89;100.00
13015;BME280;6573;57.696;11.950;2023-03-22T08:22:01;99815.78;;;12.01;100.00
13015;BME280;6573;57.696;11.950;2023-03-22T08:24:30;99809.03;;;11.91;100.00
13015;BME280;6573;57.696;11.950;2023-03-22T08:26:59;99805.41;;;11.95;100.00
13015;BME280;6573;57.696;11.950;2023-03-22T08:29:29;99809.19;;;11.85;100.00
13015;BME280;6573;57.696;11.950;2023-03-22T08:32:04;99801.88;;;11.57;100.00
13015;BME280;6573;57.696;11.950;2023-03-22T08:34:37;99803.44;;;11.66;100.00
13015;BME280;6573;57.696;11.950;2023-03-22T08:37:10;99809.84;;;11.54;100.00
13015;BME280;6573;57.696;11.950;2023-03-22T08:39:39;99811.53;;;11.58;100.00
13015;BME280;6573;57.696;11.950;2023-03-22T08:42:08;99808.25;;;11.47;100.00
13015;BME280;6573;57.696;11.950;2023-03-22T08:44:38;99802.88;;;11.53;100.00
13015;BME280;6573;57.696;11.950;2023-03-22T08:47:07;99804.03;;;11.79;100.00
13015;BME280;6573;57.696;11.950;2023-03-22T08:49:36;99806.00;;;11.71;100.00
13015;BME280;6573;57.696;11.950;2023-03-22T08:52:05;99799.81;;;11.72;100.00
13015;BME280;6573;57.696;11.950;2023-03-22T08:54:34;99790.91;;;11.77;100.00
13015;BME280;6573;57.696;11.950;2023-03-22T08:57:03;99741.44;;;11.51;100.00
13015;BME280;6573;57.696;11.950;2023-03-22T08:59:35;99765.50;;;11.75;100.00
13015;BME280;6573;57.696;11.950;2023-03-22T09:02:07;99779.44;;;11.80;100.00
13015;BME280;6573;57.696;11.950;2023-03-22T09:04:39;99781.81;;;11.90;100.00
13015;BME280;6573;57.696;11.950;2023-03-22T09:07:07;99788.03;;;11.88;100.00
13015;BME280;6573;57.696;11.950;2023-03-22T09:09:36;99770.09;;;11.65;100.00
13015;BME280;6573;57.696;11.950;2023-03-22T09:12:05;99774.22;;;11.77;100.00
13015;BME280;6573;57.696;11.950;2023-03-22T09:14:34;99779.66;;;11.71;100.00
13015;BME280;6573;57.696;11.950;2023-03-22T09:17:03;99770.78;;;11.75;100.00
13015;BME280;6573;57.696;11.950;2023-03-22T09:19:32;99738.16;;;11.43;100.00
13015;BME280;6573;57.696;11.950;2023-03-22T09:22:05;99767.13;;;11.43;100.00
13015;BME280;6573;57.696;11.950;2023-03-22T09:24:34;99759.22;;;11.43;100.00
13015;BME280;6573;57.696;11.950;2023-03-22T09:27:03;99758.19;;;11.49;100.00
13015;BME280;6573;57.696;11.950;2023-03-22T09:29:31;99745.34;;;11.35;100.00
13015;BME280;6573;57.696;11.950;2023-03-22T09:32:01;99751.50;;;11.36;100.00
13015;BME280;6573;57.696;11.950;2023-03-22T09:36:57;99741.97;;;11.30;100.00
13015;BME280;6573;57.696;11.950;2023-03-22T09:39:29;99740.03;;;11.38;100.00
13015;BME280;6573;57.696;11.950;2023-03-22T09:41:59;99733.56;;;11.13;100.00
13015;BME280;6573;57.696;11.950;2023-03-22T09:44:33;99744.63;;;11.29;100.00
13015;BME280;6573;57.696;11.950;2023-03-22T09:47:04;99747.28;;;11.27;100.00
13015;BME280;6573;57.696;11.950;2023-03-22T09:49:39;99735.28;;;11.14;100.00
13015;BME280;6573;57.696;11.950;2023-03-22T09:52:19;99738.84;;;11.13;100.00
13015;BME280;6573;57.696;11.950;2023-03-22T09:54:49;99728.09;;;11.22;100.00
13015;BME280;6573;57.696;11.950;2023-03-22T09:57:22;99729.78;;;11.26;100.00
13015;BME280;6573;57.696;11.950;2023-03-22T09:59:57;99729.78;;;11.26;100.00
13015;BME280;6573;57.696;11.950;2023-03-22T10:02:40;99714.34;;;11.11;100.00
13015;BME280;6573;57.696;11.950;2023-03-22T10:05:20;99732.78;;;11.46;100.00
13015;BME280;6573;57.696;11.950;2023-03-22T10:07:59;99734.75;;;11.38;100.00
13015;BME280;6573;57.696;11.950;2023-03-22T10:10:37;99732.38;;;11.28;100.00
13015;BME280;6573;57.696;11.950;2023-03-22T10:13:14;99728.25;;;11.16;100.00
13015;BME280;6573;57.696;11.950;2023-03-22T10:15:46;99727.16;;;11.25;100.00
13015;BME280;6573;57.696;11.950;2023-03-22T10:18:18;99708.97;;;11.14;100.00
13015;BME280;6573;57.696;11.950;2023-03-22T10:20:51;99717.63;;;11.19;100.00
13015;BME280;6573;57.696;11.950;2023-03-22T10:23:26;99686.34;;;11.07;100.00
13015;BME280;6573;57.696;11.950;2023-03-22T10:25:59;99713.81;;;11.32;100.00
13015;BME280;6573;57.696;11.950;2023-03-22T10:28:33;99718.25;;;11.30;100.00
13015;BME280;6573;57.696;11.950;2023-03-22T10:31:05;99712.00;;;11.34;100.00
13015;BME280;6573;57.696;11.950;2023-03-22T10:33:37;99702.88;;;11.50;100.00
13015;BME280;6573;57.696;11.950;2023-03-22T10:36:11;99676.31;;;11.23;100.00
13015;BME280;6573;57.696;11.950;2023-03-22T10:38:44;99713.47;;;11.47;100.00
13015;BME280;6573;57.696;11.950;2023-03-22T10:41:18;99697.72;;;11.44;100.00
13015;BME280;6573;57.696;11.950;2023-03-22T10:43:50;99695.56;;;11.26;100.00
13015;BME280;6573;57.696;11.950;2023-03-22T10:46:21;99683.75;;;11.42;100.00
13015;BME280;6573;57.696;11.950;2023-03-22T10:48:57;99687.13;;;11.47;100.00
13015;BME280;6573;57.696;11.950;2023-03-22T10:51:30;99699.16;;;11.57;100.00
13015;BME280;6573;57.696;11.950;2023-03-22T10:53:59;99674.66;;;11.55;100.00
13015;BME280;6573;57.696;11.950;2023-03-22T10:56:34;99692.09;;;11.59;100.00
13015;BME280;6573;57.696;11.950;2023-03-22T10:59:02;99674.34;;;11.67;100.00
13015;BME280;6573;57.696;11.950;2023-03-22T11:01:32;99685.00;;;11.61;100.00
13015;BME280;6573;57.696;11.950;2023-03-22T11:04:06;99692.91;;;11.63;100.00
13015;BME280;6573;57.696;11.950;2023-03-22T11:06:38;99669.78;;;11.39;100.00
13015;BME280;6573;57.696;11.950;2023-03-22T11:09:11;99672.91;;;11.54;100.00
13015;BME280;6573;57.696;11.950;2023-03-22T11:11:48;99686.44;;;11.39;100.00
13015;BME280;6573;57.696;11.950;2023-03-22T11:14:23;99659.16;;;11.43;100.00
13015;BME280;6573;57.696;11.950;2023-03-22T11:16:55;99676.94;;;11.71;100.00
13015;BME280;6573;57.696;11.950;2023-03-22T11:19:26;99676.22;;;11.62;100.00
13015;BME280;6573;57.696;11.950;2023-03-22T11:21:58;99642.44;;;11.44;100.00
13015;BME280;6573;57.696;11.950;2023-03-22T11:24:29;99669.69;;;11.43;100.00
13015;BME280;6573;57.696;11.950;2023-03-22T11:27:05;99670.34;;;11.51;100.00
13015;BME280;6573;57.696;11.950;2023-03-22T11:29:43;99662.28;;;11.57;100.00
13015;BME280;6573;57.696;11.950;2023-03-22T11:32:30;99655.38;;;11.53;100.00
13015;BME280;6573;57.696;11.950;2023-03-22T11:35:01;99658.91;;;11.52;100.00
13015;BME280;6573;57.696;11.950;2023-03-22T11:37:32;99644.94;;;11.50;100.00
13015;BME280;6573;57.696;11.950;2023-03-22T11:40:01;99649.69;;;11.35;100.00
13015;BME280;6573;57.696;11.950;2023-03-22T11:42:33;99659.06;;;11.46;100.00
13015;BME280;6573;57.696;11.950;2023-03-22T11:45:02;99641.63;;;11.42;100.00
13015;BME280;6573;57.696;11.950;2023-03-22T11:47:35;99634.41;;;11.50;100.00
13015;BME280;6573;57.696;11.950;2023-03-22T11:50:25;99651.72;;;11.59;100.00
13015;BME280;6573;57.696;11.950;2023-03-22T11:52:54;99646.19;;;11.36;100.00
13015;BME280;6573;57.696;11.950;2023-03-22T11:55:23;99659.16;;;11.43;100.00
13015;BME280;6573;57.696;11.950;2023-03-22T11:57:55;99647.00;;;11.36;100.00
13015;BME280;6573;57.696;11.950;2023-03-22T12:00:26;99640.03;;;11.35;100.00
13015;BME280;6573;57.696;11.950;2023-03-22T12:02:57;99636.34;;;11.42;100.00
13015;BME280;6573;57.696;11.950;2023-03-22T12:05:30;99639.03;;;11.41;100.00
13015;BME280;6573;57.696;11.950;2023-03-22T12:08:02;99639.81;;;11.44;100.00
13015;BME280;6573;57.696;11.950;2023-03-22T12:10:37;99621.28;;;11.47;100.00
13015;BME280;6573;57.696;11.950;2023-03-22T12:13:13;99633.59;;;11.47;100.00
13015;BME280;6573;57.696;11.950;2023-03-22T12:15:49;99627.56;;;11.43;100.00
13015;BME280;6573;57.696;11.950;2023-03-22T12:18:28;99632.56;;;11.52;100.00
13015;BME280;6573;57.696;11.950;2023-03-22T12:20:58;99622.63;;;11.63;100.00
13015;BME280;6573;57.696;11.950;2023-03-22T12:23:29;99617.22;;;11.34;100.00
13015;BME280;6573;57.696;11.950;2023-03-22T12:26:01;99627.56;;;11.43;100.00
13015;BME280;6573;57.696;11.950;2023-03-22T12:28:35;99611.81;;;11.40;100.00
13015;BME280;6573;57.696;11.950;2023-03-22T12:31:12;99613.72;;;11.35;100.00
13015;BME280;6573;57.696;11.950;2023-03-22T12:33:46;99598.06;;;11.29;100.00
13015;BME280;6573;57.696;11.950;2023-03-22T12:36:19;99596.19;;;11.34;100.00
13015;BME280;6573;57.696;11.950;2023-03-22T12:38:51;99607.63;;;11.33;100.00
13015;BME280;6573;57.696;11.950;2023-03-22T12:41:25;99599.56;;;11.39;100.00
13015;BME280;6573;57.696;11.950;2023-03-22T12:43:58;99594.16;;;11.45;100.00
13015;BME280;6573;57.696;11.950;2023-03-22T12:46:32;99595.84;;;11.46;100.00
13015;BME280;6573;57.696;11.950;2023-03-22T12:49:04;99595.84;;;11.46;100.00
13015;BME280;6573;57.696;11.950;2023-03-22T12:51:36;99579.97;;;11.49;100.00
13015;BME280;6573;57.696;11.950;2023-03-22T12:54:08;99577.84;;;11.63;100.00
13015;BME280;6573;57.696;11.950;2023-03-22T12:56:40;99574.22;;;11.67;100.00
13015;BME280;6573;57.696;11.950;2023-03-22T12:59:16;99564.50;;;11.37;100.00
13015;BME280;6573;57.696;11.950;2023-03-22T13:01:50;99555.72;;;11.38;100.00
13015;BME280;6573;57.696;11.950;2023-03-22T13:04:46;99550.53;;;11.35;100.00
13015;BME280;6573;57.696;11.950;2023-03-22T13:07:37;99544.84;;;11.50;100.00
13015;BME280;6573;57.696;11.950;2023-03-22T13:13:44;99520.88;;;11.61;100.00
13015;BME280;6573;57.696;11.950;2023-03-22T13:16:21;99519.88;;;11.63;100.00
13015;BME280;6573;57.696;11.950;2023-03-22T13:19:01;99521.97;;;11.52;100.00